Time;durP1;ratioP1;P1;durP2;ratioP2;P2;SDS_P1;SDS_P2;PMS_P1;PMS_P2;Temp;Humidity;BMP_temperature;BMP_pressure;BME280_temperature;BME280_humidity;BME280_pressure;Samples;Min_cycle;Max_cycle;Signal;HPM_P1;HPM_P2
2022/07/17 00:00:55;;;;;;;;;;;;;;;18.03;100.00;91345.28;4995204;28;19928;-67
2022/07/17 00:03:20;;;;;;;;;;;;;;;18.11;100.00;91347.00;5012496;28;20435;-67
2022/07/17 00:05:47;;;;;;;;;;;;;;;18.14;100.00;91349.00;5011739;28;19963;-67
2022/07/17 00:08:12;;;;;;;;;;;;;;;18.05;100.00;91343.78;5012332;28;20322;-67
2022/07/17 00:10:39;;;;;;;;;;;;;;;18.04;100.00;91344.16;5012388;28;20368;-66
2022/07/17 00:13:04;;;;;;;;;;;;;;;18.08;100.00;91348.50;5012338;28;19921;-66
2022/07/17 00:15:30;;;;;;;;;;;;;;;18.14;100.00;91340.94;5012129;28;19917;-67
2022/07/17 00:17:55;;;;;;;;;;;;;;;18.21;100.00;91347.31;5012130;28;19960;-67
2022/07/17 00:20:21;;;;;;;;;;;;;;;18.22;100.00;91348.88;5012003;28;19921;-67
2022/07/17 00:22:46;;;;;;;;;;;;;;;18.25;100.00;91350.88;5012133;28;19987;-68
2022/07/17 00:25:12;;;;;;;;;;;;;;;18.25;100.00;91353.56;5012068;28;19975;-67
2022/07/17 00:27:38;;;;;;;;;;;;;;;18.27;100.00;91356.69;5012090;28;19914;-68
2022/07/17 00:30:04;;;;;;;;;;;;;;;18.29;100.00;91355.56;5012063;28;19917;-68
2022/07/17 00:32:29;;;;;;;;;;;;;;;18.24;100.00;91364.69;5012040;28;20371;-68
2022/07/17 00:34:54;;;;;;;;;;;;;;;18.22;100.00;91367.72;5011923;28;19913;-68
2022/07/17 00:37:19;;;;;;;;;;;;;;;18.26;100.00;91357.81;5012024;28;20000;-68
2022/07/17 00:39:45;;;;;;;;;;;;;;;18.25;100.00;91372.41;5011862;28;19920;-68
2022/07/17 00:42:12;;;;;;;;;;;;;;;18.21;100.00;91368.84;5011959;28;19921;-68
2022/07/17 00:44:37;;;;;;;;;;;;;;;18.10;100.00;91375.06;5011879;28;20008;-68
2022/07/17 00:47:02;;;;;;;;;;;;;;;18.02;100.00;91378.72;5011902;28;20014;-68
2022/07/17 00:49:28;;;;;;;;;;;;;;;17.99;100.00;91376.69;5011812;28;20125;-68
2022/07/17 00:51:53;;;;;;;;;;;;;;;17.98;100.00;91385.88;5011791;28;20347;-68
2022/07/17 00:54:19;;;;;;;;;;;;;;;18.00;100.00;91373.66;5011817;28;20017;-67
2022/07/17 00:56:46;;;;;;;;;;;;;;;18.02;100.00;91390.25;5011763;28;19995;-67
2022/07/17 00:59:13;;;;;;;;;;;;;;;18.03;100.00;91386.44;5011689;28;19979;-68
2022/07/17 01:01:38;;;;;;;;;;;;;;;18.01;100.00;91386.00;5011725;28;19913;-67
2022/07/17 01:04:04;;;;;;;;;;;;;;;17.95;100.00;91385.44;5011779;28;19928;-67
2022/07/17 01:06:29;;;;;;;;;;;;;;;18.01;100.00;91386.00;5011727;28;19918;-67
2022/07/17 01:08:55;;;;;;;;;;;;;;;17.94;100.00;91385.78;5011568;28;20319;-67
2022/07/17 01:11:21;;;;;;;;;;;;;;;17.99;100.00;91382.88;5011706;28;19917;-67
2022/07/17 01:13:46;;;;;;;;;;;;;;;17.88;100.00;91393.34;5011638;28;19917;-67
2022/07/17 01:16:12;;;;;;;;;;;;;;;17.83;100.00;91390.06;5012513;28;19956;-67
2022/07/17 01:18:37;;;;;;;;;;;;;;;17.75;100.00;91391.00;5015458;28;19960;-67
2022/07/17 01:21:06;;;;;;;;;;;;;;;17.70;100.00;91388.56;5015289;28;19918;-67
2022/07/17 01:23:31;;;;;;;;;;;;;;;17.67;100.00;91392.66;5015430;28;19917;-67
2022/07/17 01:25:57;;;;;;;;;;;;;;;17.62;100.00;91391.00;5015293;28;19924;-67
2022/07/17 01:28:22;;;;;;;;;;;;;;;17.53;100.00;91387.69;5015193;28;19925;-67
2022/07/17 01:30:49;;;;;;;;;;;;;;;17.45;100.00;91391.25;5015300;28;19956;-67
2022/07/17 01:33:14;;;;;;;;;;;;;;;17.40;100.00;91388.03;5015192;28;19921;-67
2022/07/17 01:35:40;;;;;;;;;;;;;;;17.38;100.00;91388.38;5030194;28;19925;-67
2022/07/17 01:38:05;;;;;;;;;;;;;;;17.32;100.00;91387.00;5015096;28;20473;-67
2022/07/17 01:40:30;;;;;;;;;;;;;;;17.38;100.00;91388.38;5015108;28;20008;-67
2022/07/17 01:42:55;;;;;;;;;;;;;;;17.40;100.00;91378.06;5015039;28;19921;-67
2022/07/17 01:45:21;;;;;;;;;;;;;;;17.39;100.00;91387.25;5014913;28;20420;-67
2022/07/17 01:47:46;;;;;;;;;;;;;;;17.40;100.00;91388.03;5014835;28;19918;-68
2022/07/17 01:50:12;;;;;;;;;;;;;;;17.43;100.00;91377.38;5014960;28;19939;-67
2022/07/17 01:52:39;;;;;;;;;;;;;;;17.46;100.00;91387.44;5015150;28;19925;-66
2022/07/17 01:55:05;;;;;;;;;;;;;;;17.45;100.00;91380.50;5014682;28;20402;-67
2022/07/17 01:57:30;;;;;;;;;;;;;;;17.41;100.00;91376.94;5014933;28;19917;-67
2022/07/17 01:59:56;;;;;;;;;;;;;;;17.43;100.00;91371.22;5014680;28;20318;-67
2022/07/17 02:02:21;;;;;;;;;;;;;;;17.38;100.00;91379.53;5014700;28;20414;-67
2022/07/17 02:04:46;;;;;;;;;;;;;;;17.32;100.00;91382.41;5160592;23;19928;-68
2022/07/17 02:07:12;;;;;;;;;;;;;;;17.34;100.00;91379.38;5014297;28;20412;-69
2022/07/17 02:09:37;;;;;;;;;;;;;;;17.34;100.00;91379.38;5014499;28;20012;-69
2022/07/17 02:12:03;;;;;;;;;;;;;;;17.27;100.00;91377.28;5014219;28;20302;-68
2022/07/17 02:14:28;;;;;;;;;;;;;;;17.18;100.00;91375.81;5013879;28;19945;-68
2022/07/17 02:16:54;;;;;;;;;;;;;;;17.18;100.00;91381.97;5014430;28;19922;-69
2022/07/17 02:19:19;;;;;;;;;;;;;;;17.18;100.00;91391.97;5014046;28;20307;-70
2022/07/17 02:21:44;;;;;;;;;;;;;;;17.17;100.00;91390.38;5014082;28;19917;-69
2022/07/17 02:24:10;;;;;;;;;;;;;;;17.11;100.00;91402.50;5013879;28;19914;-70
2022/07/17 02:26:35;;;;;;;;;;;;;;;17.01;100.00;91399.13;5013939;28;19972;-69
2022/07/17 02:29:01;;;;;;;;;;;;;;;16.96;100.00;91395.88;5013201;28;20000;-69
2022/07/17 02:31:26;;;;;;;;;;;;;;;16.97;100.00;91397.47;5013866;28;19914;-68
2022/07/17 02:33:51;;;;;;;;;;;;;;;17.00;100.00;91392.19;5013698;28;20000;-69
2022/07/17 02:36:17;;;;;;;;;;;;;;;16.96;100.00;91391.28;5013530;28;19956;-69
2022/07/17 02:38:42;;;;;;;;;;;;;;;16.94;100.00;91398.91;5013691;28;19913;-69
2022/07/17 02:41:07;;;;;;;;;;;;;;;16.97;100.00;91400.94;5013594;28;19913;-68
2022/07/17 02:43:33;;;;;;;;;;;;;;;17.01;100.00;91406.41;5013598;28;19913;-67
2022/07/17 02:45:58;;;;;;;;;;;;;;;16.98;100.00;91405.19;5013367;28;19913;-69
2022/07/17 02:48:23;;;;;;;;;;;;;;;16.91;100.00;91401.50;5013367;28;19917;-67
2022/07/17 02:50:48;;;;;;;;;;;;;;;16.91;100.00;91402.28;5013598;28;19939;-69
2022/07/17 02:53:14;;;;;;;;;;;;;;;16.90;100.00;91391.88;5013304;28;19928;-69
2022/07/17 02:55:39;;;;;;;;;;;;;;;16.94;100.00;91398.13;5013142;28;19995;-69
2022/07/17 02:58:04;;;;;;;;;;;;;;;16.98;100.00;91402.50;5013261;28;19917;-69
2022/07/17 03:00:30;;;;;;;;;;;;;;;16.96;100.00;91412.78;5013247;28;20286;-69
2022/07/17 03:02:56;;;;;;;;;;;;;;;17.01;100.00;91409.88;5013474;28;19920;-68
2022/07/17 03:05:21;;;;;;;;;;;;;;;17.10;100.00;91406.31;5013075;28;20399;-67
2022/07/17 03:07:46;;;;;;;;;;;;;;;17.12;100.00;91409.44;5013122;28;19964;-68
2022/07/17 03:10:12;;;;;;;;;;;;;;;17.04;100.00;91409.22;5013103;28;19915;-68
2022/07/17 03:12:37;;;;;;;;;;;;;;;17.02;100.00;91408.75;5013043;28;19914;-68
2022/07/17 03:15:03;;;;;;;;;;;;;;;17.02;100.00;91410.66;5013096;28;19914;-69
2022/07/17 03:17:28;;;;;;;;;;;;;;;16.95;100.00;91408.53;5013221;28;19914;-69
2022/07/17 03:19:54;;;;;;;;;;;;;;;16.96;100.00;91412.00;5012984;28;19922;-69
2022/07/17 03:22:19;;;;;;;;;;;;;;;16.86;100.00;91421.28;5012884;28;20390;-69
2022/07/17 03:24:44;;;;;;;;;;;;;;;16.84;100.00;91417.38;5013034;28;19924;-69
2022/07/17 03:27:10;;;;;;;;;;;;;;;16.84;100.00;91426.22;5012804;28;20307;-68
2022/07/17 03:29:35;;;;;;;;;;;;;;;16.86;100.00;91417.81;5012637;28;19968;-68
2022/07/17 03:32:00;;;;;;;;;;;;;;;16.81;100.00;91421.50;5027949;28;20020;-68
2022/07/17 03:34:25;;;;;;;;;;;;;;;16.84;100.00;91425.44;5012493;28;19956;-68
2022/07/17 03:36:51;;;;;;;;;;;;;;;16.80;100.00;91435.28;5012591;28;20383;-68
2022/07/17 03:39:16;;;;;;;;;;;;;;;16.82;100.00;91425.78;5011946;28;20007;-68
2022/07/17 03:41:42;;;;;;;;;;;;;;;16.87;100.00;91435.50;5012191;28;20383;-68
2022/07/17 03:44:07;;;;;;;;;;;;;;;16.94;100.00;91431.16;5012400;28;19913;-68
2022/07/17 03:46:33;;;;;;;;;;;;;;;17.05;100.00;91432.31;5012401;28;19984;-68
2022/07/17 03:48:58;;;;;;;;;;;;;;;17.14;100.00;91436.78;5012361;28;19942;-68
2022/07/17 03:51:24;;;;;;;;;;;;;;;17.25;100.00;91435.22;5012269;28;19918;-68
2022/07/17 03:53:49;;;;;;;;;;;;;;;17.41;100.00;91444.16;5012234;28;19924;-68
2022/07/17 03:56:14;;;;;;;;;;;;;;;17.65;100.00;91448.72;5012108;28;19929;-68
2022/07/17 03:58:40;;;;;;;;;;;;;;;17.90;100.00;91449.50;5012266;28;19963;-68
2022/07/17 04:01:05;;;;;;;;;;;;;;;18.07;100.00;91451.94;5012381;28;20005;-68
2022/07/17 04:03:30;;;;;;;;;;;;;;;18.24;100.00;91448.97;5012231;28;19914;-68
2022/07/17 04:05:55;;;;;;;;;;;;;;;18.34;100.00;91452.31;5011911;28;19979;-67
2022/07/17 04:08:21;;;;;;;;;;;;;;;18.46;100.00;91453.03;5011917;28;20395;-68
2022/07/17 04:10:46;;;;;;;;;;;;;;;18.85;100.00;91464.09;5012071;28;19913;-68
2022/07/17 04:13:12;;;;;;;;;;;;;;;18.99;100.00;91461.00;5011997;28;19918;-68
2022/07/17 04:15:49;;;;;;;;;;;;;;;19.06;100.00;91464.63;5011870;28;20041;-68
2022/07/17 04:18:15;;;;;;;;;;;;;;;19.16;100.00;91466.03;4994229;28;20020;-68
2022/07/17 04:20:40;;;;;;;;;;;;;;;19.39;100.00;91472.38;5011954;28;20011;-68
2022/07/17 04:23:06;;;;;;;;;;;;;;;19.62;100.00;91471.81;5011918;28;19913;-68
2022/07/17 04:25:31;;;;;;;;;;;;;;;20.04;100.00;91477.41;5012016;28;20402;-69
2022/07/17 04:27:56;;;;;;;;;;;;;;;20.33;100.00;91476.06;5012001;28;19913;-68
2022/07/17 04:30:22;;;;;;;;;;;;;;;20.45;100.00;91475.97;5011974;28;19935;-69
2022/07/17 04:32:47;;;;;;;;;;;;;;;20.40;100.00;91467.34;5011750;28;20437;-68
2022/07/17 04:35:12;;;;;;;;;;;;;;;20.45;100.00;91484.06;5011726;28;19921;-68
2022/07/17 04:37:37;;;;;;;;;;;;;;;20.49;100.00;91484.91;5011912;28;19992;-68
2022/07/17 04:40:03;;;;;;;;;;;;;;;20.64;100.00;91477.88;5011842;28;19913;-67
2022/07/17 04:42:28;;;;;;;;;;;;;;;20.56;100.00;91489.69;5011636;28;19921;-68
2022/07/17 04:44:53;;;;;;;;;;;;;;;20.41;100.00;91485.91;5011534;28;20383;-68
2022/07/17 04:47:19;;;;;;;;;;;;;;;20.39;100.00;91496.28;5011770;28;19923;-67
2022/07/17 04:49:44;;;;;;;;;;;;;;;20.64;100.00;91484.06;4994204;28;19976;-68
2022/07/17 04:52:09;;;;;;;;;;;;;;;20.98;100.00;91484.31;5014342;28;19964;-68
2022/07/17 04:54:34;;;;;;;;;;;;;;;21.30;93.04;91495.72;5015759;28;19921;-68
2022/07/17 04:57:00;;;;;;;;;;;;;;;21.37;90.52;91486.97;5015770;28;19913;-68
2022/07/17 04:59:25;;;;;;;;;;;;;;;21.55;88.63;91498.88;5015723;28;20416;-68
2022/07/17 05:01:50;;;;;;;;;;;;;;;21.73;83.08;91502.66;5015747;28;20438;-67
2022/07/17 05:04:16;;;;;;;;;;;;;;;21.93;80.32;91500.63;5015543;28;19913;-69
2022/07/17 05:06:41;;;;;;;;;;;;;;;22.06;76.33;91501.25;5015449;28;20418;-68
2022/07/17 05:09:06;;;;;;;;;;;;;;;22.03;71.76;91507.38;5015592;28;20292;-68
2022/07/17 05:11:31;;;;;;;;;;;;;;;21.96;74.08;91507.28;5015477;28;20000;-68
2022/07/17 05:13:57;;;;;;;;;;;;;;;21.91;70.47;91502.94;5015338;28;19913;-68
2022/07/17 05:16:22;;;;;;;;;;;;;;;21.99;68.97;91511.97;5015297;28;20315;-69
2022/07/17 05:18:47;;;;;;;;;;;;;;;22.16;68.75;91516.88;5015499;28;20007;-68
2022/07/17 05:21:14;;;;;;;;;;;;;;;22.03;63.57;91516.28;5015391;28;19913;-68
2022/07/17 05:23:39;;;;;;;;;;;;;;;21.85;65.40;91519.88;5015253;28;19917;-68
2022/07/17 05:26:05;;;;;;;;;;;;;;;22.09;63.63;91509.44;5015236;28;20442;-68
2022/07/17 05:28:30;;;;;;;;;;;;;;;22.29;63.07;91514.75;5030453;28;19913;-68
2022/07/17 05:30:55;;;;;;;;;;;;;;;;;;5015249;28;20395;-68
2022/07/17 05:33:20;;;;;;;;;;;;;;;22.40;61.08;91521.88;5015239;28;19996;-68
2022/07/17 05:35:46;;;;;;;;;;;;;;;22.48;62.45;91516.56;5014929;28;20425;-68
2022/07/17 05:38:11;;;;;;;;;;;;;;;22.60;60.17;91527.19;5014996;28;20395;-68
2022/07/17 05:40:36;;;;;;;;;;;;;;;22.68;59.88;91537.75;5015010;28;19913;-68
2022/07/17 05:43:01;;;;;;;;;;;;;;;22.42;59.77;91529.66;5015095;28;19972;-68
2022/07/17 05:45:27;;;;;;;;;;;;;;;22.57;59.26;91530.63;5014917;28;19964;-68
2022/07/17 05:47:52;;;;;;;;;;;;;;;22.70;60.89;91534.66;5014972;28;19913;-68
2022/07/17 05:50:17;;;;;;;;;;;;;;;23.36;58.62;91535.09;5014904;28;19936;-68
2022/07/17 05:52:43;;;;;;;;;;;;;;;23.52;58.31;91533.72;5014888;28;19917;-69
2022/07/17 05:55:09;;;;;;;;;;;;;;;25.07;57.00;91535.22;5014665;28;19992;-69
2022/07/17 05:57:34;;;;;;;;;;;;;;;28.47;47.64;91531.44;5014729;28;19924;-69
2022/07/17 05:59:59;;;;;;;;;;;;;;;29.75;43.58;91543.00;5014754;28;20000;-68
2022/07/17 06:02:25;;;;;;;;;;;;;;;31.82;40.50;91545.78;5013860;28;19917;-69
2022/07/17 06:04:50;;;;;;;;;;;;;;;32.43;38.66;91550.72;5014106;28;20070;-69
2022/07/17 06:07:15;;;;;;;;;;;;;;;32.75;38.03;91555.47;5014450;28;20371;-69
2022/07/17 06:09:41;;;;;;;;;;;;;;;33.79;35.08;91556.28;5014682;28;19913;-69
2022/07/17 06:12:06;;;;;;;;;;;;;;;35.29;32.95;91546.88;5014544;28;19972;-69
2022/07/17 06:14:31;;;;;;;;;;;;;;;34.38;34.77;91557.72;5014086;28;19921;-69
2022/07/17 06:16:57;;;;;;;;;;;;;;;35.07;32.68;91555.13;5014345;28;19920;-69
2022/07/17 06:19:22;;;;;;;;;;;;;;;33.69;34.34;91554.59;5014361;28;19914;-69
2022/07/17 06:21:47;;;;;;;;;;;;;;;32.59;33.98;91561.75;5013950;28;19921;-69
2022/07/17 06:24:12;;;;;;;;;;;;;;;33.96;33.05;91552.28;5014114;28;19913;-69
2022/07/17 06:26:38;;;;;;;;;;;;;;;35.96;30.55;91552.00;5014213;28;20346;-69
2022/07/17 06:29:03;;;;;;;;;;;;;;;36.57;30.20;91551.25;5014063;28;19913;-69
2022/07/17 06:31:28;;;;;;;;;;;;;;;37.24;29.71;91548.97;5014176;28;20376;-68
2022/07/17 06:33:54;;;;;;;;;;;;;;;35.02;31.07;91541.84;5014043;28;19917;-69
2022/07/17 06:36:19;;;;;;;;;;;;;;;35.33;30.59;91542.75;5013915;28;20334;-69
2022/07/17 06:38:44;;;;;;;;;;;;;;;34.83;30.40;91552.72;5014076;28;19918;-68
2022/07/17 06:41:10;;;;;;;;;;;;;;;32.91;32.65;91551.94;5013807;28;19913;-68
2022/07/17 06:43:35;;;;;;;;;;;;;;;34.89;31.73;91546.66;5013916;28;19917;-69
2022/07/17 06:46:00;;;;;;;;;;;;;;;34.58;31.51;91546.47;5013853;28;19963;-68
2022/07/17 06:48:25;;;;;;;;;;;;;;;34.92;31.01;91557.59;5013547;28;19914;-68
2022/07/17 06:50:51;;;;;;;;;;;;;;;33.43;32.16;91556.50;5013902;28;19919;-67
2022/07/17 06:53:16;;;;;;;;;;;;;;;34.64;31.16;91558.50;5013732;28;19913;-68
2022/07/17 06:55:42;;;;;;;;;;;;;;;35.18;30.88;91557.50;5013534;28;19918;-68
2022/07/17 06:58:07;;;;;;;;;;;;;;;34.45;31.05;91557.50;5013663;28;20008;-67
2022/07/17 07:00:33;;;;;;;;;;;;;;;35.09;30.33;91555.47;5007076;28;20067;-66
2022/07/17 07:03:17;;;;;;;;;;;;;;;35.32;29.70;91557.03;5018978;28;20307;-67
2022/07/17 07:05:42;;;;;;;;;;;;;;;33.84;30.62;91561.25;5020205;28;19924;-66
2022/07/17 07:08:08;;;;;;;;;;;;;;;35.17;30.08;91558.75;5022825;28;20299;-66
2022/07/17 07:10:33;;;;;;;;;;;;;;;35.41;30.36;91560.69;5012975;28;20011;-67
2022/07/17 07:12:59;;;;;;;;;;;;;;;34.40;30.66;91556.09;5031230;28;20393;-68
2022/07/17 07:15:24;;;;;;;;;;;;;;;33.47;31.15;91557.97;5022690;28;20319;-68
2022/07/17 07:17:49;;;;;;;;;;;;;;;34.03;31.11;91559.56;5022983;28;19921;-67
2022/07/17 07:20:15;;;;;;;;;;;;;;;34.07;30.36;91561.00;5032541;28;19916;-67
2022/07/17 07:22:40;;;;;;;;;;;;;;;34.61;29.69;91567.69;5032232;28;19913;-66
2022/07/17 07:25:06;;;;;;;;;;;;;;;33.17;31.68;91566.63;5032445;28;19917;-66
2022/07/17 07:27:32;;;;;;;;;;;;;;;33.59;30.48;91571.00;5032067;28;20377;-68
2022/07/17 07:29:57;;;;;;;;;;;;;;;34.00;30.92;91563.19;5012644;28;19913;-66
2022/07/17 07:32:22;;;;;;;;;;;;;;;35.45;29.19;91568.84;5012609;28;19938;-66
2022/07/17 07:34:48;;;;;;;;;;;;;;;35.27;29.79;91569.44;5012314;28;19913;-67
2022/07/17 07:37:13;;;;;;;;;;;;;;;35.23;29.81;91571.56;5012171;28;19963;-67
2022/07/17 07:39:38;;;;;;;;;;;;;;;35.35;28.80;91579.09;5012497;28;19917;-66
2022/07/17 07:42:04;;;;;;;;;;;;;;;34.76;31.34;91577.84;5012506;28;19917;-65
2022/07/17 07:44:29;;;;;;;;;;;;;;;35.09;29.87;91578.34;5012265;28;19917;-65
2022/07/17 07:46:55;;;;;;;;;;;;;;;34.60;31.08;91580.72;5018427;28;20544;-66
2022/07/17 07:49:20;;;;;;;;;;;;;;;34.06;30.28;91580.75;5021120;28;19913;-66
2022/07/17 07:51:45;;;;;;;;;;;;;;;32.99;30.97;91584.41;5019168;28;20028;-65
2022/07/17 07:54:11;;;;;;;;;;;;;;;32.82;32.23;91582.09;5028411;28;19913;-66
2022/07/17 07:56:36;;;;;;;;;;;;;;;33.06;31.61;91589.75;5031876;28;19913;-65
2022/07/17 07:59:02;;;;;;;;;;;;;;;33.84;31.91;91591.63;5031803;28;19920;-65
2022/07/17 08:01:28;;;;;;;;;;;;;;;33.82;30.55;91592.06;5031895;28;20026;-65
2022/07/17 08:03:53;;;;;;;;;;;;;;;35.91;29.89;91592.16;5031644;28;20382;-66
2022/07/17 08:06:18;;;;;;;;;;;;;;;37.10;27.93;91594.75;5031037;28;19924;-65
2022/07/17 08:08:44;;;;;;;;;;;;;;;37.47;27.19;91601.16;5028413;28;19991;-65
2022/07/17 08:11:10;;;;;;;;;;;;;;;37.24;27.75;91598.94;5021257;28;20369;-66
2022/07/17 08:13:35;;;;;;;;;;;;;;;36.90;27.66;91597.91;5023498;28;19956;-66
2022/07/17 08:16:00;;;;;;;;;;;;;;;35.69;29.45;91600.44;5031539;28;19960;-66
2022/07/17 08:18:26;;;;;;;;;;;;;;;35.45;29.30;91590.22;5031544;28;19974;-67
2022/07/17 08:20:52;;;;;;;;;;;;;;;37.05;29.22;91593.34;5022134;28;19917;-67
2022/07/17 08:23:17;;;;;;;;;;;;;;;35.94;29.31;91596.78;5024037;28;19917;-67
2022/07/17 08:25:43;;;;;;;;;;;;;;;35.31;29.80;91591.47;5022625;28;19988;-66
2022/07/17 08:28:09;;;;;;;;;;;;;;;35.04;30.22;91587.22;5018967;28;19917;-67
2022/07/17 08:30:34;;;;;;;;;;;;;;;35.04;30.24;91594.75;5015545;28;19979;-65
2022/07/17 08:33:01;;;;;;;;;;;;;;;37.01;28.08;91597.50;5013937;28;20371;-66
2022/07/17 08:35:26;;;;;;;;;;;;;;;38.72;26.90;91598.44;5020218;28;19913;-65
2022/07/17 08:37:52;;;;;;;;;;;;;;;39.79;26.51;91600.34;5029572;28;19935;-67
2022/07/17 08:40:25;;;;;;;;;;;;;;;41.86;25.18;91600.94;5030668;28;19915;-67
2022/07/17 08:42:51;;;;;;;;;;;;;;;41.81;24.76;91598.84;5031306;28;19924;-67
2022/07/17 08:45:16;;;;;;;;;;;;;;;41.62;23.75;91594.75;5031287;28;19909;-67
2022/07/17 08:47:42;;;;;;;;;;;;;;;40.76;25.86;91592.47;5031152;28;20397;-67
2022/07/17 08:50:08;;;;;;;;;;;;;;;40.80;24.89;91602.19;5030761;28;19920;-67
2022/07/17 08:52:36;;;;;;;;;;;;;;;39.49;24.59;91601.47;5031037;28;19913;-66
2022/07/17 08:55:01;;;;;;;;;;;;;;;39.85;24.33;91600.44;5009417;28;20007;-66
2022/07/17 08:57:27;;;;;;;;;;;;;;;37.53;27.02;91593.75;5019439;28;19972;-64
2022/07/17 08:59:52;;;;;;;;;;;;;;;35.75;25.94;91586.00;5020920;28;20379;-65
2022/07/17 09:02:17;;;;;;;;;;;;;;;33.26;28.84;91581.34;5019263;28;19913;-65
2022/07/17 09:04:51;;;;;;;;;;;;;;;31.28;32.59;91590.84;5011165;28;19913;-67
2022/07/17 09:07:17;;;;;;;;;;;;;;;30.81;32.46;91584.56;5011196;28;19967;-67
2022/07/17 09:09:48;;;;;;;;;;;;;;;32.02;31.48;91585.03;5011331;28;19914;-65
2022/07/17 09:12:14;;;;;;;;;;;;;;;34.62;29.64;91594.88;5011155;28;19913;-66
2022/07/17 09:14:40;;;;;;;;;;;;;;;35.33;28.40;91592.56;5011010;28;19917;-66
2022/07/17 09:17:07;;;;;;;;;;;;;;;36.92;27.69;91595.47;5011409;28;20075;-67
2022/07/17 09:19:34;;;;;;;;;;;;;;;37.38;26.59;91593.59;5011289;28;19913;-66
2022/07/17 09:22:20;;;;;;;;;;;;;;;38.43;26.97;91590.63;5010739;28;19925;-66
2022/07/17 09:24:45;;;;;;;;;;;;;;;37.55;25.54;91590.50;5011114;28;20017;-66
2022/07/17 09:27:12;;;;;;;;;;;;;;;37.01;27.04;91591.94;5011088;28;19983;-67
2022/07/17 09:29:56;;;;;;;;;;;;;;;36.83;27.32;91587.13;5010603;28;19914;-67
2022/07/17 09:32:23;;;;;;;;;;;;;;;37.34;27.33;91589.44;5011012;28;19914;-67
2022/07/17 09:34:49;;;;;;;;;;;;;;;36.39;27.44;91578.13;5010578;28;19913;-67
2022/07/17 09:37:14;;;;;;;;;;;;;;;38.75;25.99;91573.25;5012194;28;19917;-67
2022/07/17 09:39:40;;;;;;;;;;;;;;;35.32;27.78;91573.63;5014788;28;19917;-68
2022/07/17 09:42:06;;;;;;;;;;;;;;;35.91;28.82;91575.53;5014902;28;20023;-66
2022/07/17 09:44:31;;;;;;;;;;;;;;;36.60;27.86;91568.97;5014633;28;19963;-67
2022/07/17 09:46:57;;;;;;;;;;;;;;;37.99;28.17;91574.31;5014763;28;19920;-67
2022/07/17 09:49:26;;;;;;;;;;;;;;;37.34;27.97;91570.00;5014461;28;19913;-68
2022/07/17 09:51:51;;;;;;;;;;;;;;;38.88;26.83;91568.22;5014476;28;19914;-67
2022/07/17 09:54:20;;;;;;;;;;;;;;;39.80;25.26;91574.03;5014624;28;19913;-67
2022/07/17 09:56:47;;;;;;;;;;;;;;;35.72;28.50;91566.31;5014547;28;19913;-67
2022/07/17 09:59:13;;;;;;;;;;;;;;;35.45;29.57;91565.31;5014438;28;19920;-67
2022/07/17 10:01:39;;;;;;;;;;;;;;;37.10;27.77;91573.34;5014387;28;20306;-67
2022/07/17 10:04:04;;;;;;;;;;;;;;;37.84;26.83;91568.63;5014097;28;19918;-67
2022/07/17 10:06:30;;;;;;;;;;;;;;;37.41;26.69;91572.47;5013666;28;19924;-66
2022/07/17 10:08:55;;;;;;;;;;;;;;;37.72;27.01;91567.56;4996621;28;19918;-68
2022/07/17 10:11:22;;;;;;;;;;;;;;;36.95;28.02;91571.59;5014272;28;19913;-67
2022/07/17 10:13:48;;;;;;;;;;;;;;;37.14;27.99;91568.41;5013944;28;19913;-67
2022/07/17 10:16:14;;;;;;;;;;;;;;;36.57;29.40;91564.34;5013785;28;19913;-67
2022/07/17 10:18:42;;;;;;;;;;;;;;;37.31;28.47;91571.69;5013952;28;19984;-67
2022/07/17 10:21:15;;;;;;;;;;;;;;;38.53;27.71;91562.34;5013632;28;19920;-66
2022/07/17 10:23:41;;;;;;;;;;;;;;;38.64;27.09;91556.28;5013782;28;20310;-66
2022/07/17 10:26:07;;;;;;;;;;;;;;;38.54;27.26;91568.66;5013743;28;19914;-66
2022/07/17 10:28:40;;;;;;;;;;;;;;;36.68;28.83;91559.16;5014052;28;20339;-66
2022/07/17 10:31:05;;;;;;;;;;;;;;;35.65;30.07;91557.47;5013999;28;19924;-66
2022/07/17 10:33:30;;;;;;;;;;;;;;;37.80;27.72;91556.13;5013554;28;20311;-66
2022/07/17 10:35:59;;;;;;;;;;;;;;;36.49;28.79;91555.56;5014085;28;19917;-66
2022/07/17 10:38:26;;;;;;;;;;;;;;;36.07;29.02;91540.53;5014014;28;19917;-66
2022/07/17 10:40:59;;;;;;;;;;;;;;;36.33;29.63;91538.41;5014068;28;19913;-67
2022/07/17 10:43:24;;;;;;;;;;;;;;;35.58;29.38;91541.91;5013955;28;20020;-66
2022/07/17 10:45:50;;;;;;;;;;;;;;;36.08;29.77;91542.09;5013099;28;19957;-65
2022/07/17 10:48:16;;;;;;;;;;;;;;;36.98;29.20;91546.50;5013654;28;19918;-66
2022/07/17 10:50:46;;;;;;;;;;;;;;;36.83;28.53;91542.75;5013447;28;19914;-67
2022/07/17 10:53:26;;;;;;;;;;;;;;;37.75;28.26;91533.31;5013958;28;20338;-65
2022/07/17 10:55:56;;;;;;;;;;;;;;;38.76;27.35;91537.84;5013501;28;19914;-67
2022/07/17 10:58:23;;;;;;;;;;;;;;;38.76;27.44;91541.41;5013560;28;19980;-67
2022/07/17 11:01:06;;;;;;;;;;;;;;;38.34;27.93;91531.03;5013405;28;19914;-67
2022/07/17 11:03:35;;;;;;;;;;;;;;;35.05;30.89;91533.47;5013039;28;20315;-66
2022/07/17 11:06:11;;;;;;;;;;;;;;;34.33;30.85;91536.16;5012858;28;19927;-66
2022/07/17 11:08:40;;;;;;;;;;;;;;;34.34;31.59;91535.72;5013100;28;20303;-66
2022/07/17 11:11:05;;;;;;;;;;;;;;;35.63;30.86;91530.25;5013157;28;19967;-66
2022/07/17 11:13:31;;;;;;;;;;;;;;;35.42;30.07;91537.31;5012994;28;20370;-68
2022/07/17 11:15:56;;;;;;;;;;;;;;;34.15;31.12;91531.97;5012929;28;19924;-66
2022/07/17 11:18:22;;;;;;;;;;;;;;;34.84;30.54;91529.38;5013059;28;19913;-66
2022/07/17 11:20:55;;;;;;;;;;;;;;;35.30;30.62;91529.03;5013014;28;19917;-66
2022/07/17 11:23:21;;;;;;;;;;;;;;;37.55;29.91;91530.19;5012589;28;20004;-65
2022/07/17 11:25:59;;;;;;;;;;;;;;;38.19;27.10;91532.16;5013190;28;20381;-66
2022/07/17 11:28:30;;;;;;;;;;;;;;;37.10;28.14;91517.84;5012849;28;20315;-67
2022/07/17 11:30:55;;;;;;;;;;;;;;;37.33;28.42;91519.25;5012938;28;20322;-66
2022/07/17 11:33:21;;;;;;;;;;;;;;;37.35;28.32;91521.56;5012872;28;20403;-67
2022/07/17 11:35:46;;;;;;;;;;;;;;;39.11;27.18;91516.63;5012836;28;19914;-67
2022/07/17 11:38:12;;;;;;;;;;;;;;;36.77;28.58;91522.34;5012940;28;19913;-67
2022/07/17 11:40:47;;;;;;;;;;;;;;;35.82;29.92;91522.84;5012873;28;19913;-66
2022/07/17 11:43:12;;;;;;;;;;;;;;;35.34;30.40;91518.63;5012693;28;19917;-67
2022/07/17 11:45:39;;;;;;;;;;;;;;;33.74;30.37;91516.19;5012540;28;19917;-66
2022/07/17 11:48:05;;;;;;;;;;;;;;;33.60;32.42;91509.09;5012853;28;19940;-65
2022/07/17 11:50:30;;;;;;;;;;;;;;;35.07;30.81;91514.41;5012506;28;20384;-67
2022/07/17 11:52:59;;;;;;;;;;;;;;;36.20;29.77;91508.00;5012511;28;20450;-67
2022/07/17 11:55:34;;;;;;;;;;;;;;;37.22;28.32;91518.91;5012539;28;19921;-67
2022/07/17 11:57:59;;;;;;;;;;;;;;;34.04;30.56;91509.41;4994864;28;19917;-67
2022/07/17 12:00:24;;;;;;;;;;;;;;;31.75;34.09;91508.19;4994151;28;19984;-66
2022/07/17 12:03:00;;;;;;;;;;;;;;;32.62;34.05;91518.78;5027326;28;19964;-65
2022/07/17 12:05:29;;;;;;;;;;;;;;;34.82;31.33;91504.16;5012143;28;20380;-67
2022/07/17 12:07:55;;;;;;;;;;;;;;;34.90;30.54;91513.03;5012328;28;19917;-65
2022/07/17 12:10:21;;;;;;;;;;;;;;;36.10;28.65;91509.94;5012234;28;19936;-66
2022/07/17 12:13:00;;;;;;;;;;;;;;;35.46;30.04;91497.69;5012490;28;19921;-66
2022/07/17 12:15:46;;;;;;;;;;;;;;;34.66;30.07;91506.31;5012143;28;19992;-66
2022/07/17 12:18:21;;;;;;;;;;;;;;;36.48;28.40;91508.91;5011709;28;19935;-67
2022/07/17 12:20:48;;;;;;;;;;;;;;;36.28;28.76;91496.16;5012122;28;20310;-67
2022/07/17 12:23:31;;;;;;;;;;;;;;;36.08;29.46;91493.00;5012467;28;20039;-67
2022/07/17 12:26:10;;;;;;;;;;;;;;;36.41;28.09;91487.75;5011958;28;19924;-66
2022/07/17 12:28:36;;;;;;;;;;;;;;;35.39;30.82;91491.19;5012253;28;19914;-66
2022/07/17 12:31:02;;;;;;;;;;;;;;;35.45;29.68;91494.13;5012032;28;20372;-67
2022/07/17 12:33:28;;;;;;;;;;;;;;;36.08;29.20;91490.22;4993387;28;20315;-67
2022/07/17 12:35:53;;;;;;;;;;;;;;;35.96;29.16;91483.53;4992191;28;19914;-66
2022/07/17 12:38:19;;;;;;;;;;;;;;;35.54;29.31;91479.59;4992175;28;19980;-68